createdAt,value
2023-05-15T00:00:31.720Z,2.10
2023-05-15T00:02:59.571Z,2.33
2023-05-15T00:05:27.365Z,2.20
2023-05-15T00:07:55.110Z,2.17
2023-05-15T00:10:24.051Z,2.00
2023-05-15T00:12:51.651Z,2.03
2023-05-15T00:15:19.361Z,2.07
2023-05-15T00:17:46.987Z,2.33
2023-05-15T00:20:14.590Z,2.70
2023-05-15T00:22:42.197Z,2.00
2023-05-15T00:25:10.706Z,2.30
2023-05-15T00:27:39.702Z,2.30
2023-05-15T00:30:08.663Z,2.20
2023-05-15T00:32:36.423Z,2.60
2023-05-15T00:35:05.321Z,2.53
2023-05-15T00:37:33.062Z,2.30
2023-05-15T00:40:00.924Z,2.40
2023-05-15T00:42:29.200Z,2.20
2023-05-15T00:44:58.189Z,2.50
2023-05-15T00:47:27.276Z,2.57
2023-05-15T00:49:54.864Z,2.50
2023-05-15T00:52:22.778Z,2.50
2023-05-15T00:54:50.771Z,2.33
2023-05-15T00:57:19.236Z,2.63
2023-05-15T00:59:47.467Z,2.70
2023-05-15T01:02:17.129Z,2.63
2023-05-15T01:04:44.775Z,2.40
2023-05-15T01:07:12.413Z,2.80
2023-05-15T01:09:43.211Z,2.27
2023-05-15T01:12:11.274Z,2.33
2023-05-15T01:14:38.993Z,2.60
2023-05-15T01:17:06.690Z,2.37
2023-05-15T01:19:36.532Z,2.60
2023-05-15T01:22:26.016Z,2.70
2023-05-15T01:25:19.472Z,2.67
2023-05-15T01:27:50.165Z,2.80
2023-05-15T01:30:22.657Z,2.90
2023-05-15T01:32:55.298Z,2.80
2023-05-15T01:35:26.682Z,2.83
2023-05-15T01:38:00.251Z,2.70
2023-05-15T01:40:29.093Z,2.90
2023-05-15T01:43:02.592Z,2.83
2023-05-15T01:45:30.479Z,2.93
2023-05-15T01:48:00.707Z,2.90
2023-05-15T01:50:29.352Z,3.00
2023-05-15T01:52:59.630Z,2.90
2023-05-15T01:55:28.735Z,3.00
2023-05-15T01:57:58.085Z,3.00
2023-05-15T02:00:25.803Z,2.43
2023-05-15T02:02:54.519Z,3.00
2023-05-15T02:05:23.168Z,2.90
2023-05-15T02:07:51.098Z,3.03
2023-05-15T02:10:19.560Z,3.10
2023-05-15T02:12:47.541Z,3.13
2023-05-15T02:15:17.308Z,2.70
2023-05-15T02:17:44.941Z,3.00
2023-05-15T02:20:13.044Z,2.97
2023-05-15T02:22:40.715Z,3.40
2023-05-15T02:25:08.965Z,3.00
2023-05-15T02:27:42.582Z,3.10
2023-05-15T02:30:22.662Z,2.80
2023-05-15T02:32:57.546Z,2.87
2023-05-15T02:35:30.651Z,2.83
2023-05-15T02:38:01.758Z,2.87
2023-05-15T02:40:30.050Z,2.80
2023-05-15T02:42:58.302Z,3.00
2023-05-15T02:45:27.778Z,2.93
2023-05-15T02:47:55.669Z,2.97
2023-05-15T02:50:23.730Z,2.80
2023-05-15T02:52:51.380Z,2.83
2023-05-15T02:55:19.266Z,2.90
2023-05-15T02:57:47.028Z,2.90
2023-05-15T03:00:16.234Z,3.00
2023-05-15T03:02:45.208Z,2.97
2023-05-15T03:05:12.823Z,2.70
2023-05-15T03:07:41.315Z,2.80
2023-05-15T03:10:09.665Z,2.60
2023-05-15T03:12:37.730Z,2.70
2023-05-15T03:15:06.256Z,2.43
2023-05-15T03:17:33.972Z,2.40
2023-05-15T03:20:04.659Z,2.63
2023-05-15T03:22:32.284Z,2.47
2023-05-15T03:25:01.766Z,2.73
2023-05-15T03:27:29.499Z,2.40
2023-05-15T03:29:57.157Z,2.33
2023-05-15T03:32:24.840Z,2.60
2023-05-15T03:34:52.479Z,2.63
2023-05-15T03:37:21.434Z,2.67
2023-05-15T03:39:49.087Z,2.73
2023-05-15T03:42:22.428Z,2.87
2023-05-15T03:44:50.132Z,2.83
2023-05-15T03:47:17.906Z,2.77
2023-05-15T03:49:46.729Z,3.23
2023-05-15T03:52:14.720Z,2.93
2023-05-15T03:54:43.879Z,2.47
2023-05-15T03:57:11.483Z,2.70
2023-05-15T03:59:39.130Z,2.27
2023-05-15T04:02:07.015Z,2.40
2023-05-15T04:04:34.701Z,2.37
2023-05-15T04:07:03.202Z,2.13
2023-05-15T04:09:30.832Z,2.30
2023-05-15T04:11:59.713Z,2.40
2023-05-15T04:14:27.356Z,2.57
2023-05-15T04:16:55.014Z,3.10
2023-05-15T04:19:22.646Z,2.37
2023-05-15T04:21:50.356Z,2.73
2023-05-15T04:24:17.947Z,3.40
2023-05-15T04:26:45.662Z,3.20
2023-05-15T04:29:14.717Z,3.93
2023-05-15T04:31:42.346Z,4.90
2023-05-15T04:34:10.030Z,7.10
2023-05-15T04:36:37.641Z,8.70
2023-05-15T04:39:05.274Z,10.30
2023-05-15T04:41:33.697Z,10.87
2023-05-15T04:44:01.320Z,10.57
2023-05-15T04:46:30.542Z,11.47
2023-05-15T04:48:58.183Z,11.60
2023-05-15T04:51:25.931Z,12.13
2023-05-15T04:53:53.749Z,11.47
2023-05-15T04:56:21.307Z,12.53
2023-05-15T04:58:49.081Z,12.57
2023-05-15T05:01:16.791Z,13.17
2023-05-15T05:03:45.880Z,14.87
2023-05-15T05:06:13.495Z,13.87
2023-05-15T05:08:41.102Z,13.73
2023-05-15T05:11:08.773Z,17.17
2023-05-15T05:13:36.417Z,17.10
2023-05-15T05:16:04.223Z,17.57
2023-05-15T05:18:31.984Z,18.03
2023-05-15T05:21:05.877Z,18.93
2023-05-15T05:23:33.545Z,20.07
2023-05-15T05:26:01.852Z,22.83
2023-05-15T05:28:30.175Z,23.67
2023-05-15T05:30:57.827Z,23.07
2023-05-15T05:33:25.521Z,23.43
2023-05-15T05:35:53.631Z,24.03
2023-05-15T05:38:22.570Z,23.60
2023-05-15T05:40:51.033Z,25.63
2023-05-15T05:43:18.635Z,23.47
2023-05-15T05:45:46.322Z,25.00
2023-05-15T05:48:14.335Z,25.40
2023-05-15T05:50:42.308Z,25.47
2023-05-15T05:53:10.137Z,26.83
2023-05-15T05:55:39.150Z,26.87
2023-05-15T05:58:14.679Z,26.30
2023-05-15T06:00:51.965Z,26.57
2023-05-15T06:03:20.242Z,28.80
2023-05-15T06:05:48.572Z,28.97
2023-05-15T06:08:16.250Z,29.13
2023-05-15T06:10:45.505Z,28.77
2023-05-15T06:13:14.738Z,29.17
2023-05-15T06:15:42.527Z,28.97
2023-05-15T06:18:10.290Z,29.67
2023-05-15T06:20:38.239Z,31.07
2023-05-15T06:23:05.850Z,29.50
2023-05-15T06:25:33.483Z,30.07
2023-05-15T06:28:02.610Z,28.33
2023-05-15T06:30:30.315Z,27.27
2023-05-15T06:32:58.022Z,29.53
2023-05-15T06:35:25.817Z,27.27
2023-05-15T06:37:53.531Z,27.67
2023-05-15T06:40:22.004Z,27.40
2023-05-15T06:42:49.521Z,27.93
2023-05-15T06:45:18.478Z,26.93
2023-05-15T06:47:46.102Z,27.73
2023-05-15T06:50:13.836Z,28.87
2023-05-15T06:52:41.641Z,26.63
2023-05-15T06:55:10.075Z,27.30
2023-05-15T06:57:37.648Z,26.03
2023-05-15T07:00:06.495Z,26.13
2023-05-15T07:02:35.519Z,23.60
2023-05-15T07:05:03.158Z,23.83
2023-05-15T07:07:30.822Z,26.60
2023-05-15T07:09:58.409Z,24.43
2023-05-15T07:12:26.503Z,26.20
2023-05-15T07:14:54.111Z,26.47
2023-05-15T07:17:21.676Z,25.77
2023-05-15T07:19:50.664Z,25.73
2023-05-15T07:22:18.273Z,25.10
2023-05-15T07:24:45.913Z,26.43
2023-05-15T07:27:13.466Z,26.87
2023-05-15T07:29:41.170Z,25.70
2023-05-15T07:32:08.982Z,24.90
2023-05-15T07:34:36.667Z,26.57
2023-05-15T07:37:06.036Z,25.07
2023-05-15T07:39:33.816Z,25.20
2023-05-15T07:42:01.473Z,24.27
2023-05-15T07:44:29.230Z,25.00
2023-05-15T07:46:57.423Z,23.87
2023-05-15T07:49:25.001Z,21.10
2023-05-15T07:51:52.621Z,23.53
2023-05-15T07:54:21.810Z,21.87
2023-05-15T07:56:49.389Z,22.40
2023-05-15T07:59:17.416Z,20.53
2023-05-15T08:01:45.012Z,22.23
2023-05-15T08:04:13.037Z,21.10
2023-05-15T08:06:42.727Z,20.90
2023-05-15T08:09:12.759Z,20.97
2023-05-15T08:11:41.786Z,22.40
2023-05-15T08:14:11.596Z,21.47
2023-05-15T08:16:40.696Z,22.43
2023-05-15T08:19:10.267Z,22.13
2023-05-15T08:21:38.222Z,21.70
2023-05-15T08:24:06.774Z,21.07
2023-05-15T08:26:34.379Z,21.20
2023-05-15T08:29:03.707Z,21.80
2023-05-15T08:31:31.398Z,20.07
2023-05-15T08:33:59.054Z,20.33
2023-05-15T08:36:26.990Z,20.50
2023-05-15T08:38:54.679Z,20.90
2023-05-15T08:41:39.910Z,21.60
2023-05-15T08:44:10.515Z,22.23
2023-05-15T08:46:38.320Z,22.93
2023-05-15T08:49:12.923Z,22.67
2023-05-15T08:51:40.559Z,22.50
2023-05-15T08:54:08.562Z,22.43
2023-05-15T08:56:36.618Z,23.23
2023-05-15T08:59:05.285Z,21.53
2023-05-15T09:01:35.003Z,22.97
2023-05-15T09:04:02.665Z,21.60
2023-05-15T09:06:30.323Z,22.50
2023-05-15T09:08:58.785Z,22.60
2023-05-15T09:11:27.696Z,21.43
2023-05-15T09:13:58.948Z,22.73
2023-05-15T09:16:26.675Z,23.10
2023-05-15T09:18:55.734Z,24.73
2023-05-15T09:21:24.274Z,23.63
2023-05-15T09:23:51.957Z,23.70
2023-05-15T09:26:19.624Z,23.23
2023-05-15T09:28:47.305Z,22.93
2023-05-15T09:31:14.877Z,23.67
2023-05-15T09:33:42.753Z,24.10
2023-05-15T09:36:11.722Z,22.30
2023-05-15T09:38:42.270Z,22.63
2023-05-15T09:41:10.086Z,21.47
2023-05-15T09:43:38.749Z,21.33
2023-05-15T09:46:08.333Z,22.37
2023-05-15T09:48:36.443Z,20.53
2023-05-15T09:51:06.976Z,21.73
2023-05-15T09:53:38.491Z,21.27
2023-05-15T09:56:06.530Z,18.70
2023-05-15T09:58:36.166Z,19.10
2023-05-15T10:01:04.225Z,18.60
2023-05-15T10:03:31.928Z,20.53
2023-05-15T10:06:04.529Z,20.17
2023-05-15T10:08:32.229Z,17.77
2023-05-15T10:11:01.815Z,17.43
2023-05-15T10:13:32.958Z,19.30
2023-05-15T10:16:02.127Z,18.00
2023-05-15T10:18:31.519Z,18.63
2023-05-15T10:21:03.956Z,16.67
2023-05-15T10:23:32.255Z,16.40
2023-05-15T10:26:03.833Z,17.67
2023-05-15T10:28:33.493Z,14.97
2023-05-15T10:31:02.123Z,16.33
2023-05-15T10:33:30.689Z,16.50
2023-05-15T10:35:59.979Z,16.90
2023-05-15T10:38:28.020Z,15.17
2023-05-15T10:41:13.019Z,13.97
2023-05-15T10:43:45.783Z,12.90
2023-05-15T10:46:14.368Z,15.30
2023-05-15T10:48:42.258Z,13.93
2023-05-15T10:51:16.297Z,13.23
2023-05-15T10:53:44.274Z,14.57
2023-05-15T10:56:14.940Z,14.27
2023-05-15T10:58:48.042Z,14.63
2023-05-15T11:01:28.907Z,13.03
2023-05-15T11:04:07.684Z,13.47
2023-05-15T11:06:35.960Z,13.93
2023-05-15T11:09:35.107Z,12.90
2023-05-15T11:12:04.148Z,12.50
2023-05-15T11:14:35.943Z,12.17
2023-05-15T11:17:05.343Z,11.00
2023-05-15T11:19:38.119Z,11.57
2023-05-15T11:22:18.577Z,11.33
2023-05-15T11:24:53.826Z,11.90
2023-05-15T11:27:23.777Z,13.23
2023-05-15T11:30:13.651Z,11.47
2023-05-15T11:32:52.261Z,12.40
2023-05-15T11:35:22.596Z,12.00
2023-05-15T11:37:51.846Z,11.83
2023-05-15T11:40:26.899Z,12.43
2023-05-15T11:43:02.274Z,11.80
2023-05-15T11:45:33.944Z,11.67
2023-05-15T11:48:03.381Z,12.37
2023-05-15T11:50:32.795Z,10.83
2023-05-15T11:53:03.166Z,9.57
2023-05-15T11:55:32.631Z,8.53
2023-05-15T11:58:00.497Z,8.37
2023-05-15T12:00:28.312Z,9.50
2023-05-15T12:02:57.429Z,8.97
2023-05-15T12:05:25.393Z,9.07
2023-05-15T12:07:53.089Z,8.37
2023-05-15T12:10:20.684Z,9.27
2023-05-15T12:12:48.518Z,6.93
2023-05-15T12:15:17.701Z,6.50
2023-05-15T12:17:46.670Z,6.23
2023-05-15T12:20:18.508Z,6.40
2023-05-15T12:22:46.303Z,6.03
2023-05-15T12:25:15.923Z,5.80
2023-05-15T12:27:43.640Z,4.77
2023-05-15T12:30:12.361Z,5.90
2023-05-15T12:32:40.325Z,5.87
2023-05-15T12:35:08.601Z,6.20
2023-05-15T12:37:37.893Z,5.37
2023-05-15T12:40:10.140Z,5.70
2023-05-15T12:42:42.004Z,5.67
2023-05-15T12:45:17.215Z,5.47
2023-05-15T12:47:45.474Z,5.37
2023-05-15T12:50:15.914Z,4.80
2023-05-15T12:52:51.557Z,4.53
2023-05-15T12:55:22.965Z,4.27
2023-05-15T12:57:50.655Z,4.97
2023-05-15T13:00:21.556Z,4.60
2023-05-15T13:02:51.327Z,4.73
2023-05-15T13:05:19.119Z,4.63
2023-05-15T13:07:48.725Z,4.77
2023-05-15T13:10:16.481Z,4.67
2023-05-15T13:12:45.180Z,5.00
2023-05-15T13:15:25.160Z,5.20
2023-05-15T13:17:59.333Z,4.37
2023-05-15T13:20:28.373Z,4.80
2023-05-15T13:22:57.353Z,5.23
2023-05-15T13:25:24.991Z,4.53
2023-05-15T13:27:52.990Z,4.33
2023-05-15T13:30:20.890Z,4.90
2023-05-15T13:32:48.822Z,4.70
2023-05-15T13:35:16.660Z,4.60
2023-05-15T13:37:44.263Z,4.93
2023-05-15T13:40:13.980Z,3.90
2023-05-15T13:42:42.851Z,3.57
2023-05-15T13:45:12.212Z,3.37
2023-05-15T13:47:40.322Z,4.13
2023-05-15T13:50:09.188Z,3.90
2023-05-15T13:52:37.088Z,4.30
2023-05-15T13:55:05.364Z,4.50
2023-05-15T13:57:34.295Z,4.50
2023-05-15T14:00:01.901Z,4.50
2023-05-15T14:02:29.629Z,4.10
2023-05-15T14:04:57.222Z,4.40
2023-05-15T14:07:25.188Z,4.57
2023-05-15T14:09:52.915Z,4.43
2023-05-15T14:12:22.043Z,4.03
2023-05-15T14:14:51.412Z,3.97
2023-05-15T14:17:19.294Z,3.80
2023-05-15T14:19:46.895Z,4.23
2023-05-15T14:22:14.455Z,4.50
2023-05-15T14:24:42.062Z,4.70
2023-05-15T14:27:09.661Z,4.43
2023-05-15T14:29:37.461Z,4.73
2023-05-15T14:32:07.310Z,4.60
2023-05-15T14:34:34.952Z,4.40
2023-05-15T14:37:02.938Z,5.50
2023-05-15T14:39:30.483Z,5.77
2023-05-15T14:41:58.113Z,5.50
2023-05-15T14:44:25.797Z,5.80
2023-05-15T14:47:07.984Z,5.60
2023-05-15T14:49:35.992Z,5.30
2023-05-15T14:52:03.774Z,5.97
2023-05-15T14:54:31.344Z,6.00
2023-05-15T14:56:59.002Z,4.97
2023-05-15T14:59:27.148Z,5.03
2023-05-15T15:01:54.860Z,5.30
2023-05-15T15:04:23.839Z,5.13
2023-05-15T15:06:51.427Z,6.33
2023-05-15T15:09:21.250Z,6.00
2023-05-15T15:11:49.368Z,6.33
2023-05-15T15:14:16.959Z,5.87
2023-05-15T15:16:46.026Z,5.97
2023-05-15T15:19:13.760Z,5.97
2023-05-15T15:21:43.218Z,5.80
2023-05-15T15:24:10.825Z,5.53
2023-05-15T15:26:38.440Z,5.13
2023-05-15T15:29:05.981Z,6.03
2023-05-15T15:31:33.612Z,5.33
2023-05-15T15:34:04.425Z,5.87
2023-05-15T15:36:33.388Z,5.90
2023-05-15T15:39:02.375Z,4.70
2023-05-15T15:41:31.125Z,4.83
2023-05-15T15:43:58.721Z,4.80
2023-05-15T15:46:26.537Z,4.67
2023-05-15T15:48:54.140Z,5.53
2023-05-15T15:51:21.734Z,4.63
2023-05-15T15:53:49.315Z,4.90
2023-05-15T15:56:18.282Z,5.33
2023-05-15T15:58:45.865Z,4.43
2023-05-15T16:01:13.518Z,5.33
2023-05-15T16:03:41.157Z,4.50
2023-05-15T16:06:08.833Z,5.07
2023-05-15T16:08:36.449Z,4.40
2023-05-15T16:11:04.066Z,4.80
2023-05-15T16:13:33.452Z,7.60
2023-05-15T16:16:01.354Z,4.30
2023-05-15T16:18:29.102Z,4.40
2023-05-15T16:20:57.112Z,6.13
2023-05-15T16:23:24.791Z,5.77
2023-05-15T16:25:52.454Z,6.40
2023-05-15T16:28:20.056Z,6.33
2023-05-15T16:30:51.313Z,6.13
2023-05-15T16:33:19.497Z,6.23
2023-05-15T16:35:47.443Z,5.83
2023-05-15T16:38:18.027Z,6.50
2023-05-15T16:40:45.725Z,6.67
2023-05-15T16:43:14.597Z,6.33
2023-05-15T16:45:42.236Z,6.20
2023-05-15T16:48:11.603Z,6.97
2023-05-15T16:50:39.233Z,6.43
2023-05-15T16:53:07.288Z,5.93
2023-05-15T16:55:35.027Z,5.50
2023-05-15T16:58:02.710Z,6.03
2023-05-15T17:00:30.788Z,5.77
2023-05-15T17:02:58.456Z,5.33
2023-05-15T17:05:27.568Z,6.00
2023-05-15T17:07:55.155Z,6.10
2023-05-15T17:10:22.976Z,6.27
2023-05-15T17:12:51.071Z,5.80
2023-05-15T17:15:18.738Z,6.07
2023-05-15T17:17:46.375Z,5.90
2023-05-15T17:20:14.160Z,6.60
2023-05-15T17:22:43.075Z,6.40
2023-05-15T17:25:11.217Z,5.90
2023-05-15T17:27:41.229Z,7.27
2023-05-15T17:30:09.926Z,7.37
2023-05-15T17:32:38.190Z,7.17
2023-05-15T17:35:08.041Z,7.20
2023-05-15T17:37:35.709Z,7.27
2023-05-15T17:40:08.282Z,7.90
2023-05-15T17:42:36.292Z,7.40
2023-05-15T17:45:04.065Z,7.63
2023-05-15T17:47:31.941Z,7.40
2023-05-15T17:49:59.686Z,7.33
2023-05-15T17:52:27.497Z,7.80
2023-05-15T17:54:55.218Z,7.07
2023-05-15T17:57:24.236Z,7.43
2023-05-15T17:59:51.940Z,6.73
2023-05-15T18:02:19.673Z,6.63
2023-05-15T18:04:47.245Z,7.07
2023-05-15T18:07:14.875Z,6.50
2023-05-15T18:09:42.600Z,6.20
2023-05-15T18:12:10.590Z,6.53
2023-05-15T18:14:40.526Z,5.87
2023-05-15T18:17:08.263Z,6.30
2023-05-15T18:19:35.896Z,6.23
2023-05-15T18:22:03.659Z,5.40
2023-05-15T18:24:31.351Z,6.43
2023-05-15T18:26:59.046Z,5.53
2023-05-15T18:29:26.815Z,5.53
2023-05-15T18:31:55.898Z,5.80
2023-05-15T18:34:23.593Z,6.10
2023-05-15T18:36:52.095Z,5.33
2023-05-15T18:39:20.014Z,5.50
2023-05-15T18:41:47.639Z,6.10
2023-05-15T18:44:15.282Z,5.70
2023-05-15T18:46:43.110Z,5.90
2023-05-15T18:49:12.256Z,5.80
2023-05-15T18:51:40.037Z,5.87
2023-05-15T18:54:07.914Z,5.90
2023-05-15T18:56:35.974Z,5.67
2023-05-15T18:59:03.702Z,5.47
2023-05-15T19:01:31.366Z,6.00
2023-05-15T19:03:59.076Z,5.60
2023-05-15T19:06:28.100Z,6.07
2023-05-15T19:08:55.753Z,6.33
2023-05-15T19:11:23.554Z,8.10
2023-05-15T19:13:51.271Z,8.33
2023-05-15T19:16:19.334Z,10.10
2023-05-15T19:18:47.008Z,9.27
2023-05-15T19:21:15.711Z,9.40
2023-05-15T19:23:44.621Z,10.03
2023-05-15T19:26:12.207Z,10.20
2023-05-15T19:28:39.781Z,11.57
2023-05-15T19:31:14.020Z,11.07
2023-05-15T19:33:44.931Z,11.80
2023-05-15T19:36:13.190Z,12.37
2023-05-15T19:38:41.010Z,11.57
2023-05-15T19:41:10.156Z,13.43
2023-05-15T19:43:38.747Z,13.50
2023-05-15T19:46:06.609Z,13.17
2023-05-15T19:48:34.206Z,14.57
2023-05-15T19:51:01.794Z,14.67
2023-05-15T19:53:29.510Z,14.57
2023-05-15T19:55:57.612Z,13.90
2023-05-15T19:58:26.701Z,16.83
2023-05-15T20:00:54.783Z,14.67
2023-05-15T20:03:22.745Z,14.00
2023-05-15T20:05:50.478Z,14.70
2023-05-15T20:08:18.277Z,14.60
2023-05-15T20:10:51.541Z,14.87
2023-05-15T20:13:19.449Z,14.23
2023-05-15T20:15:48.742Z,15.37
2023-05-15T20:18:16.656Z,15.13
2023-05-15T20:20:44.750Z,16.03
2023-05-15T20:23:12.312Z,15.30
2023-05-15T20:25:40.150Z,15.17
2023-05-15T20:28:07.752Z,15.37
2023-05-15T20:30:35.390Z,15.73
2023-05-15T20:33:04.639Z,13.90
2023-05-15T20:35:32.387Z,13.77
2023-05-15T20:38:00.012Z,12.73
2023-05-15T20:40:28.094Z,13.60
2023-05-15T20:42:57.041Z,13.27
2023-05-15T20:45:25.418Z,12.27
2023-05-15T20:47:53.101Z,13.07
2023-05-15T20:50:22.137Z,12.33
2023-05-15T20:52:49.924Z,13.33
2023-05-15T20:55:20.024Z,11.23
2023-05-15T20:57:48.964Z,12.40
2023-05-15T21:00:17.891Z,11.73
2023-05-15T21:02:46.367Z,12.07
2023-05-15T21:05:14.438Z,11.73
2023-05-15T21:07:43.845Z,12.80
2023-05-15T21:10:12.029Z,13.87
2023-05-15T21:12:39.832Z,13.83
2023-05-15T21:15:08.867Z,13.93
2023-05-15T21:17:36.527Z,15.40
2023-05-15T21:20:04.977Z,14.63
2023-05-15T21:22:33.090Z,16.30
2023-05-15T21:25:02.363Z,17.53
2023-05-15T21:27:29.995Z,18.57
2023-05-15T21:29:57.681Z,17.97
2023-05-15T21:32:25.282Z,19.20
2023-05-15T21:34:53.010Z,19.40
2023-05-15T21:37:20.945Z,20.80
2023-05-15T21:39:48.669Z,21.03
2023-05-15T21:42:17.615Z,23.87
2023-05-15T21:44:45.220Z,24.43
2023-05-15T21:47:12.852Z,23.50
2023-05-15T21:49:40.465Z,26.30
2023-05-15T21:52:08.113Z,25.37
2023-05-15T21:54:35.693Z,26.80
2023-05-15T21:57:03.232Z,28.17
2023-05-15T21:59:32.286Z,29.93
2023-05-15T22:02:00.009Z,30.13
2023-05-15T22:04:28.682Z,28.50
2023-05-15T22:06:56.318Z,29.40
2023-05-15T22:09:23.922Z,31.70
2023-05-15T22:11:51.754Z,30.13
2023-05-15T22:14:19.360Z,30.30
2023-05-15T22:16:48.584Z,29.90
2023-05-15T22:19:29.024Z,30.47
2023-05-15T22:22:00.628Z,30.90
2023-05-15T22:24:28.351Z,29.87
2023-05-15T22:26:55.949Z,29.00
2023-05-15T22:29:23.514Z,30.50
2023-05-15T22:31:52.629Z,28.80
2023-05-15T22:34:20.498Z,31.27
2023-05-15T22:36:48.152Z,31.30
2023-05-15T22:39:16.318Z,30.83
2023-05-15T22:41:44.348Z,30.70
2023-05-15T22:44:12.298Z,30.97
2023-05-15T22:46:40.190Z,27.73
2023-05-15T22:49:09.959Z,29.00
2023-05-15T22:51:38.726Z,28.57
2023-05-15T22:54:06.752Z,29.30
2023-05-15T22:56:34.725Z,28.10
2023-05-15T22:59:02.738Z,29.20
2023-05-15T23:01:32.316Z,26.57
2023-05-15T23:04:00.377Z,27.30
2023-05-15T23:06:29.732Z,28.73
2023-05-15T23:08:57.669Z,26.10
2023-05-15T23:11:25.731Z,27.00
2023-05-15T23:13:53.760Z,28.47
2023-05-15T23:16:22.276Z,27.40
2023-05-15T23:18:52.260Z,26.63
2023-05-15T23:21:20.282Z,26.20
2023-05-15T23:23:49.736Z,24.97
2023-05-15T23:26:17.801Z,25.93
2023-05-15T23:28:45.791Z,23.93
2023-05-15T23:31:14.301Z,25.30
2023-05-15T23:33:42.475Z,25.37
2023-05-15T23:36:10.601Z,23.93
2023-05-15T23:38:38.415Z,23.63
2023-05-15T23:41:08.591Z,23.03
2023-05-15T23:43:36.455Z,22.20
2023-05-15T23:46:04.264Z,21.77
2023-05-15T23:48:33.742Z,21.00
2023-05-15T23:51:01.731Z,22.13
2023-05-15T23:53:29.524Z,20.80
2023-05-15T23:55:59.298Z,20.77
2023-05-15T23:58:28.666Z,20.20
